Lubbock Preston Smith International Airport Lubbock US
ICAO: KLBB
IATA: LBB
Category: Large
Scheduled Services: Yes

Elevation: 3282 ft
TransAlt. 18000 ft.

Airport Communications:
APP:119.2
ATIS:125.3
CLNC DEL:125.8
DEP:119.2
GND:121.9
FORT WORTH RDO:122.55
TWR:120.5
UNICOM:122.95

KLBB Zoom In..

Runways:

(A) RW 08 length 8003 ft width 150 ft
---- / hdg 81

(B) RW 17L length 2891 ft width 75 ft
---- / hdg 171

(C) RW 17R length 11500 ft width 150 ft
ILS 111.70 / hdg 171

(D) RW 26 length 8003 ft width 150 ft
ILS 111.90 / hdg 261

(E) RW 35L length 11500 ft width 150 ft
---- / hdg 351

(F) RW 35R length 2891 ft width 75 ft
---- / hdg 351

Location; KLBB
Day. 23 / Time. 14.53 Zulu
* Altimeter: 30.24
* Temperature: -03° c. -26.6°f.
* Wind from: 000° Speed 00 kn.
Dewpoint: -17° c.
Visibility: 10 Statute Miles.
Clouds: Few 19000 ft.
Clouds: Few 25000 ft.

KLBB 231453Z 00000KT 10SM FEW190 FEW250 M03/M17 A3024 RMK AO2 SLP253 T10331172 51016


Wind - Calm.

YouTube Music Video
 
jpsmedia.com for Web Design  worldairports.se 2018   terms of use